Time;durP1;ratioP1;P1;durP2;ratioP2;P2;SDS_P1;SDS_P2;PMS_P1;PMS_P2;Temp;Humidity;BMP_temperature;BMP_pressure;BME280_temperature;BME280_humidity;BME280_pressure;Samples;Min_cycle;Max_cycle;Signal;HPM_P1;HPM_P2
2023/07/08 00:00:52;;;;;;;6.30;4.40;;;;;;;19.50;79.31;101673.00;4978940;28;20129;-73
2023/07/08 00:03:18;;;;;;;7.60;4.45;;;;;;;19.42;79.88;101677.22;4983567;28;20038;-72
2023/07/08 00:05:46;;;;;;;6.78;4.35;;;;;;;19.44;79.39;101671.69;4979350;28;20136;-72
2023/07/08 00:08:13;;;;;;;6.85;4.82;;;;;;;19.42;80.14;101673.66;4978797;28;20058;-71
2023/07/08 00:10:39;;;;;;;9.23;4.60;;;;;;;19.44;80.33;101666.28;4980957;28;20039;-73
2023/07/08 00:13:09;;;;;;;9.40;4.63;;;;;;;19.41;80.13;101669.25;4981587;28;20124;-71
2023/07/08 00:15:36;;;;;;;8.00;4.15;;;;;;;19.38;81.24;101666.81;4986944;28;20141;-72
2023/07/08 00:18:13;;;;;;;8.52;4.82;;;;;;;19.37;80.66;101660.53;4992012;28;20071;-74
2023/07/08 00:20:45;;;;;;;6.38;4.85;;;;;;;19.31;80.38;101660.22;4991918;28;20588;-73
2023/07/08 00:23:12;;;;;;;9.50;5.43;;;;;;;19.28;81.89;101661.34;4994738;28;20121;-71
2023/07/08 00:25:38;;;;;;;7.32;5.28;;;;;;;19.14;81.80;101657.13;4985608;28;20042;-72
2023/07/08 00:28:12;;;;;;;7.45;4.72;;;;;;;19.13;82.11;101652.72;4999828;28;20054;-73
2023/07/08 00:30:37;;;;;;;6.30;4.65;;;;;;;19.11;82.55;101648.41;4987801;28;20031;-73
2023/07/08 00:33:06;;;;;;;9.02;4.78;;;;;;;19.15;82.54;101650.72;4973495;28;20106;-72
2023/07/08 00:35:37;;;;;;;8.30;4.75;;;;;;;19.11;82.42;101651.97;4989567;28;20042;-71
2023/07/08 00:38:15;;;;;;;7.43;4.70;;;;;;;19.10;83.07;101652.97;4977340;28;20035;-72
2023/07/08 00:41:02;;;;;;;7.22;5.43;;;;;;;19.10;83.38;101650.28;4989091;28;21049;-73
2023/07/08 00:43:51;;;;;;;10.30;5.15;;;;;;;19.06;83.50;101646.13;4985231;28;20070;-72
2023/07/08 00:46:31;;;;;;;10.02;5.00;;;;;;;19.08;83.49;101646.84;4988049;28;20031;-74
2023/07/08 00:49:15;;;;;;;6.63;4.32;;;;;;;19.06;81.91;101642.56;4980144;28;20492;-73
2023/07/08 00:51:42;;;;;;;10.05;5.18;;;;;;;19.07;83.60;101638.84;4977712;28;20530;-72
2023/07/08 00:54:16;;;;;;;7.35;5.07;;;;;;;18.95;83.92;101637.22;4985441;28;20084;-73
2023/07/08 00:56:48;;;;;;;7.25;5.50;;;;;;;18.74;85.55;101631.81;4981908;28;20057;-72
2023/07/08 00:59:37;;;;;;;11.82;5.40;;;;;;;18.57;86.88;101633.19;4988360;28;20039;-73
2023/07/08 01:02:07;;;;;;;7.45;5.50;;;;;;;18.50;88.44;101632.03;4984331;28;20205;-72
2023/07/08 01:04:42;;;;;;;8.63;5.47;;;;;;;18.59;87.74;101637.50;4984212;28;20049;-74
2023/07/08 01:07:11;;;;;;;8.45;5.38;;;;;;;18.53;88.29;101632.63;4983577;28;20034;-71
2023/07/08 01:09:42;;;;;;;7.68;5.03;;;;;;;18.65;87.29;101628.00;4993079;28;20042;-72
2023/07/08 01:12:13;;;;;;;7.00;5.00;;;;;;;18.72;87.44;101629.22;4985437;28;20081;-73
2023/07/08 01:14:42;;;;;;;5.25;4.72;;;;;;;18.62;88.38;101628.25;4990646;28;20140;-72
2023/07/08 01:17:13;;;;;;;8.30;4.90;;;;;;;18.56;88.65;101632.34;4986077;28;20117;-72
2023/07/08 01:19:43;;;;;;;9.23;5.32;;;;;;;18.54;88.80;101636.19;4990011;28;20756;-72
2023/07/08 01:22:11;;;;;;;7.38;4.95;;;;;;;18.60;88.40;101649.16;4984638;28;20050;-73
2023/07/08 01:24:41;;;;;;;7.82;4.50;;;;;;;18.57;89.04;101639.47;4979005;28;20089;-72
2023/07/08 01:27:11;;;;;;;6.70;4.97;;;;;;;18.52;89.33;101638.13;4983222;28;20105;-72
2023/07/08 01:29:37;;;;;;;8.95;4.90;;;;;;;18.52;90.27;101628.19;4983283;28;20050;-73
2023/07/08 01:32:05;;;;;;;5.68;4.90;;;;;;;18.48;90.44;101628.59;4972080;28;20104;-73
2023/07/08 01:34:35;;;;;;;7.70;5.30;;;;;;;18.42;90.79;101621.00;4979596;28;21437;-72
2023/07/08 01:37:05;;;;;;;6.88;4.93;;;;;;;18.28;89.66;101619.47;4990962;28;20046;-73
2023/07/08 01:39:32;;;;;;;8.35;5.05;;;;;;;18.31;90.25;101621.88;4983017;28;20101;-73
2023/07/08 01:41:58;;;;;;;8.50;5.70;;;;;;;18.32;90.62;101616.38;4978337;28;20070;-72
2023/07/08 01:44:35;;;;;;;6.22;5.03;;;;;;;18.22;91.39;101614.56;4989761;28;20051;-72
2023/07/08 01:47:11;;;;;;;6.25;4.82;;;;;;;18.09;92.10;101622.84;4985015;28;20042;-71
2023/07/08 01:49:39;;;;;;;9.88;5.13;;;;;;;18.20;91.72;101612.00;4993674;28;20046;-75
2023/07/08 01:52:07;;;;;;;6.15;4.57;;;;;;;18.27;91.11;101618.63;4989196;28;20114;-72
2023/07/08 01:54:33;;;;;;;6.20;5.13;;;;;;;18.21;92.48;101612.84;4989519;28;20601;-72
2023/07/08 01:56:58;;;;;;;6.93;4.38;;;;;;;18.28;91.77;101611.38;4993128;28;20045;-72
2023/07/08 01:59:25;;;;;;;8.20;5.22;;;;;;;18.25;91.29;101603.50;4985551;28;20041;-72
2023/07/08 02:01:54;;;;;;;9.00;4.93;;;;;;;18.19;91.60;101610.28;5002886;28;20117;-74
2023/07/08 02:04:21;;;;;;;8.13;5.35;;;;;;;18.09;92.33;101601.25;4993405;28;20042;-73
2023/07/08 02:07:05;;;;;;;7.30;4.85;;;;;;;18.00;93.59;101597.44;4993936;28;20069;-75
2023/07/08 02:09:30;;;;;;;9.65;5.60;;;;;;;17.92;93.92;101593.66;4983480;28;21027;-73
2023/07/08 02:11:56;;;;;;;6.70;4.80;;;;;;;17.87;94.41;101596.72;4998034;28;20039;-73
2023/07/08 02:14:22;;;;;;;8.65;5.93;;;;;;;17.86;94.61;101595.88;4986366;28;20034;-71
2023/07/08 02:16:48;;;;;;;9.73;5.72;;;;;;;17.84;94.60;101583.50;4987749;28;20035;-72
2023/07/08 02:19:15;;;;;;;10.23;5.47;;;;;;;17.86;95.01;101576.13;4986108;28;20038;-72
2023/07/08 02:21:41;;;;;;;9.13;5.20;;;;;;;17.83;94.67;101579.09;4994060;28;20108;-71
2023/07/08 02:24:07;;;;;;;11.40;6.05;;;;;;;17.72;96.20;101574.56;4982972;28;20058;-71
2023/07/08 02:26:35;;;;;;;9.48;5.95;;;;;;;17.70;96.64;101578.34;4992044;28;20030;-72
2023/07/08 02:29:02;;;;;;;7.65;5.70;;;;;;;17.67;97.31;101578.59;4983146;28;20065;-72
2023/07/08 02:31:29;;;;;;;8.63;5.88;;;;;;;17.67;97.63;101578.59;4976563;28;20166;-72
2023/07/08 02:33:55;;;;;;;8.35;5.53;;;;;;;17.62;98.93;101576.28;5000193;28;20542;-72
2023/07/08 02:36:21;;;;;;;9.60;4.97;;;;;;;17.51;99.87;101573.59;4985106;28;20047;-72
2023/07/08 02:38:46;;;;;;;12.70;6.07;;;;;;;17.46;100.00;101567.72;5002845;28;20129;-72
2023/07/08 02:41:12;;;;;;;12.48;6.13;;;;;;;17.51;100.00;101571.75;4983391;28;20067;-74
2023/07/08 02:43:39;;;;;;;12.93;6.00;;;;;;;17.48;99.83;101574.72;4983088;28;20807;-74
2023/07/08 02:46:06;;;;;;;12.10;6.07;;;;;;;17.43;99.79;101571.53;5003395;28;20050;-74
2023/07/08 02:48:31;;;;;;;11.05;5.80;;;;;;;17.35;100.00;101569.44;4979795;28;20046;-73
2023/07/08 02:51:02;;;;;;;7.70;5.85;;;;;;;17.46;100.00;101565.00;4990431;28;20050;-75
2023/07/08 02:53:27;;;;;;;9.25;6.03;;;;;;;17.41;100.00;101565.38;4983482;28;20054;-72
2023/07/08 02:55:53;;;;;;;7.88;6.32;;;;;;;17.39;100.00;101570.06;4987261;28;20054;-72
2023/07/08 02:58:19;;;;;;;10.38;6.32;;;;;;;17.37;100.00;101565.75;4990316;28;20031;-71
2023/07/08 03:00:44;;;;;;;9.30;7.05;;;;;;;17.33;100.00;101562.47;4991614;28;20104;-72
2023/07/08 03:03:12;;;;;;;10.93;6.47;;;;;;;17.37;100.00;101558.53;4987929;28;20042;-72
2023/07/08 03:05:37;;;;;;;8.90;6.80;;;;;;;17.35;100.00;101563.19;4993147;28;20042;-71
2023/07/08 03:08:04;;;;;;;10.40;6.75;;;;;;;17.30;100.00;101563.56;4987887;28;20043;-73
2023/07/08 03:10:29;;;;;;;7.90;6.25;;;;;;;17.38;100.00;101564.78;4988098;28;20050;-71
2023/07/08 03:12:55;;;;;;;7.35;6.18;;;;;;;17.47;100.00;101567.59;4981656;28;20040;-72
2023/07/08 03:15:22;;;;;;;13.50;7.63;;;;;;;17.46;100.00;101565.00;4979717;28;20034;-73
2023/07/08 03:17:47;;;;;;;8.43;6.07;;;;;;;17.47;100.00;101562.22;5004097;28;20046;-73
2023/07/08 03:20:13;;;;;;;14.25;6.60;;;;;;;17.42;100.00;101559.03;4986288;28;20117;-72
2023/07/08 03:22:39;;;;;;;8.85;7.20;;;;;;;17.54;100.00;101555.31;5007581;28;20521;-73
2023/07/08 03:25:06;;;;;;;9.70;6.72;;;;;;;17.51;100.00;101560.09;4996560;28;20043;-72
2023/07/08 03:27:31;;;;;;;9.07;6.43;;;;;;;17.57;100.00;101565.88;5006191;28;20041;-73
2023/07/08 03:29:57;;;;;;;10.13;6.50;;;;;;;17.60;100.00;101565.59;5014939;28;20054;-71
2023/07/08 03:32:25;;;;;;;11.50;6.82;;;;;;;17.59;100.00;101565.75;5002918;28;20035;-73
2023/07/08 03:34:51;;;;;;;10.35;7.15;;;;;;;17.55;100.00;101567.81;4988629;28;20041;-72
2023/07/08 03:37:16;;;;;;;9.32;6.25;;;;;;;17.66;100.00;101564.25;4992597;28;20045;-73
2023/07/08 03:39:42;;;;;;;7.45;6.25;;;;;;;17.67;100.00;101565.09;4981933;28;20031;-72
2023/07/08 03:42:07;;;;;;;14.95;7.07;;;;;;;17.69;100.00;101568.56;4986203;28;21000;-72
2023/07/08 03:44:33;;;;;;;9.85;6.68;;;;;;;17.89;100.00;101577.75;5008459;28;20435;-72
2023/07/08 03:46:59;;;;;;;9.80;5.90;;;;;;;18.21;97.83;101575.06;4986268;28;20295;-72
2023/07/08 03:49:25;;;;;;;9.35;5.90;;;;;;;18.48;95.77;101575.44;4989234;28;20459;-73
2023/07/08 03:51:53;;;;;;;10.65;6.18;;;;;;;18.74;93.01;101572.38;4991560;28;20088;-73
2023/07/08 03:54:21;;;;;;;10.20;6.38;;;;;;;19.09;92.83;101574.72;4991171;28;20034;-73
2023/07/08 03:56:47;;;;;;;9.90;6.82;;;;;;;19.44;91.38;101566.19;4998280;28;20149;-72
2023/07/08 03:59:13;;;;;;;10.65;6.60;;;;;;;19.48;88.18;101569.44;5010280;28;20876;-72
2023/07/08 04:01:40;;;;;;;6.57;5.93;;;;;;;19.29;87.74;101565.69;4990329;28;20034;-72
2023/07/08 04:04:11;;;;;;;6.65;5.25;;;;;;;19.58;87.23;101573.94;4993816;28;20038;-72
2023/07/08 04:06:37;;;;;;;9.95;5.88;;;;;;;19.82;84.67;101575.41;4988784;28;20093;-73
2023/07/08 04:09:03;;;;;;;9.90;5.60;;;;;;;19.84;85.27;101577.00;4981899;28;20042;-72
2023/07/08 04:11:28;;;;;;;8.43;6.32;;;;;;;19.48;85.44;101572.16;4985796;28;20117;-72
2023/07/08 04:13:54;;;;;;;11.73;6.25;;;;;;;19.47;85.98;101576.72;4975589;28;20031;-72
2023/07/08 04:16:30;;;;;;;10.82;6.05;;;;;;;19.43;85.94;101567.19;4984324;28;20567;-72
2023/07/08 04:18:56;;;;;;;9.32;7.00;;;;;;;19.05;87.79;101574.13;4983231;28;20117;-72
2023/07/08 04:21:24;;;;;;;9.27;5.07;;;;;;;18.97;89.28;101573.91;4993989;28;20030;-73
2023/07/08 04:23:50;;;;;;;6.68;5.38;;;;;;;18.89;91.75;101579.16;4994285;28;20034;-72
2023/07/08 04:26:16;;;;;;;7.25;5.68;;;;;;;19.29;92.00;101578.38;4990919;28;20938;-73
2023/07/08 04:28:42;;;;;;;11.38;6.07;;;;;;;20.34;85.49;101578.78;4987411;28;20058;-73
2023/07/08 04:31:08;;;;;;;9.55;5.78;;;;;;;21.25;79.98;101580.06;4988081;28;20034;-74
2023/07/08 04:33:34;;;;;;;7.03;5.72;;;;;;;21.84;73.85;101575.19;4986363;28;20165;-72
2023/07/08 04:35:59;;;;;;;8.85;5.40;;;;;;;22.15;71.88;101570.31;4992192;28;20053;-74
2023/07/08 04:38:26;;;;;;;7.60;5.22;;;;;;;22.13;70.64;101577.75;4983452;28;20030;-73
2023/07/08 04:40:53;;;;;;;11.00;5.43;;;;;;;22.37;69.56;101574.41;4989393;28;20089;-72
2023/07/08 04:43:20;;;;;;;10.10;5.68;;;;;;;22.69;68.36;101571.09;4981568;28;20090;-73
2023/07/08 04:45:52;;;;;;;14.00;5.80;;;;;;;22.82;68.77;101577.00;4982941;28;20069;-72
2023/07/08 04:48:21;;;;;;;8.23;5.80;;;;;;;23.05;66.59;101573.78;4986335;28;20034;-73
2023/07/08 04:50:51;;;;;;;11.75;5.20;;;;;;;22.22;67.45;101576.81;4992213;28;20070;-74
2023/07/08 04:53:17;;;;;;;9.45;6.25;;;;;;;21.62;71.46;101582.75;4977373;28;20031;-73
2023/07/08 04:55:52;;;;;;;11.95;5.80;;;;;;;20.61;76.39;101589.75;4987522;28;20049;-74
2023/07/08 04:58:18;;;;;;;9.38;5.28;;;;;;;19.78;83.71;101591.09;4992155;28;20052;-73
2023/07/08 05:00:44;;;;;;;10.27;5.35;;;;;;;19.73;84.56;101590.66;4982428;28;20582;-71
2023/07/08 05:03:09;;;;;;;9.23;5.55;;;;;;;19.75;85.87;101588.66;4989358;28;20473;-73
2023/07/08 05:05:35;;;;;;;10.15;6.38;;;;;;;20.20;86.04;101592.72;4987352;28;20070;-71
2023/07/08 05:08:01;;;;;;;8.80;6.38;;;;;;;21.03;81.36;101588.53;4995177;28;20779;-72
2023/07/08 05:10:26;;;;;;;10.13;5.53;;;;;;;21.75;77.42;101581.56;4975237;28;20134;-73
2023/07/08 05:12:52;;;;;;;9.07;6.25;;;;;;;20.89;80.47;101581.75;4979491;28;20517;-73
2023/07/08 05:15:18;;;;;;;7.45;5.35;;;;;;;20.56;80.65;101592.03;4988468;28;20030;-72
2023/07/08 05:17:44;;;;;;;10.65;6.10;;;;;;;20.36;83.02;101583.03;5003739;28;20109;-73
2023/07/08 05:20:13;;;;;;;10.82;5.80;;;;;;;21.05;81.67;101576.56;4998328;28;20041;-72
2023/07/08 05:22:39;;;;;;;13.80;5.95;;;;;;;21.24;79.72;101574.78;4998189;28;20038;-72
2023/07/08 05:25:08;;;;;;;9.07;5.35;;;;;;;21.36;76.95;101573.59;4973854;28;20047;-74
2023/07/08 05:27:34;;;;;;;7.88;5.38;;;;;;;21.79;76.37;101564.81;4972657;28;20043;-74
2023/07/08 05:30:01;;;;;;;7.95;6.03;;;;;;;22.53;74.27;101560.94;4993184;28;20050;-70
2023/07/08 05:32:27;;;;;;;7.47;5.80;;;;;;;22.41;71.29;101564.94;5005052;28;20039;-74
2023/07/08 05:34:53;;;;;;;7.80;5.72;;;;;;;22.79;69.84;101560.13;4992803;28;20581;-72
2023/07/08 05:37:23;;;;;;;6.78;5.63;;;;;;;23.09;68.87;101559.66;4994974;28;20096;-72
2023/07/08 05:39:49;;;;;;;10.65;5.25;;;;;;;23.44;64.86;101560.53;4992732;28;20042;-73
2023/07/08 05:42:14;;;;;;;11.70;6.85;;;;;;;23.66;65.23;101553.69;4991202;28;20030;-71
2023/07/08 05:44:40;;;;;;;7.82;5.25;;;;;;;23.38;65.35;101561.19;4979162;28;20519;-71
2023/07/08 05:47:05;;;;;;;8.10;5.57;;;;;;;23.62;67.21;101553.13;4990667;28;20038;-74
2023/07/08 05:49:31;;;;;;;7.25;5.45;;;;;;;23.70;66.38;101550.47;4994625;28;20063;-72
2023/07/08 05:51:57;;;;;;;8.05;5.35;;;;;;;23.57;66.51;101550.03;4995927;28;20827;-73
2023/07/08 05:54:22;;;;;;;6.18;5.38;;;;;;;23.61;65.91;101554.13;4996229;28;20030;-73
2023/07/08 05:56:48;;;;;;;7.55;5.78;;;;;;;23.26;66.45;101558.75;4986949;28;20046;-73
2023/07/08 05:59:14;;;;;;;6.70;4.88;;;;;;;23.65;67.58;101552.84;4998470;28;20042;-72
2023/07/08 06:01:39;;;;;;;8.32;5.80;;;;;;;23.98;67.51;101556.47;4978615;28;20046;-71
2023/07/08 06:04:05;;;;;;;7.50;5.22;;;;;;;24.04;65.45;101552.22;4994499;28;20047;-73
2023/07/08 06:06:32;;;;;;;7.13;4.72;;;;;;;24.61;64.23;101556.91;4990436;28;20046;-73
2023/07/08 06:08:57;;;;;;;6.13;5.30;;;;;;;24.36;64.86;101558.78;4987726;28;20038;-72
2023/07/08 06:11:23;;;;;;;6.22;5.15;;;;;;;24.17;63.95;101559.91;4993792;28;20145;-72
2023/07/08 06:13:48;;;;;;;7.70;5.25;;;;;;;24.58;64.25;101569.00;4991450;28;20042;-74
2023/07/08 06:16:14;;;;;;;6.35;5.30;;;;;;;24.65;64.30;101561.84;4995652;28;20035;-73
2023/07/08 06:18:40;;;;;;;8.32;4.72;;;;;;;24.74;63.54;101573.56;4991717;28;20929;-72
2023/07/08 06:21:06;;;;;;;13.40;5.22;;;;;;;24.64;64.04;101572.91;4994541;28;20027;-73
2023/07/08 06:23:31;;;;;;;6.82;4.75;;;;;;;24.95;63.26;101567.56;4980444;28;20050;-72
2023/07/08 06:25:57;;;;;;;8.23;4.97;;;;;;;24.95;62.80;101568.44;4999162;28;20554;-72
2023/07/08 06:28:23;;;;;;;8.75;4.85;;;;;;;25.64;61.83;101567.88;4991025;28;20912;-72
2023/07/08 06:30:49;;;;;;;8.60;5.03;;;;;;;25.85;60.13;101573.59;4990451;28;20039;-74
2023/07/08 06:33:14;;;;;;;5.32;4.28;;;;;;;26.33;59.22;101566.97;4992395;28;20039;-72
2023/07/08 06:35:40;;;;;;;7.15;4.55;;;;;;;26.26;57.59;101562.44;4982926;28;20034;-72
2023/07/08 06:38:07;;;;;;;7.72;4.10;;;;;;;26.34;55.89;101559.63;4992422;28;20613;-73
2023/07/08 06:40:33;;;;;;;5.95;4.13;;;;;;;26.17;58.31;101567.09;4994862;28;20038;-72
2023/07/08 06:42:59;;;;;;;4.45;4.05;;;;;;;26.22;56.96;101564.66;4998613;28;20045;-74
2023/07/08 06:45:48;;;;;;;5.00;3.90;;;;;;;26.57;56.06;101565.94;4995870;28;20119;-74
2023/07/08 06:48:14;;;;;;;11.05;4.55;;;;;;;26.19;58.10;101558.72;4987843;28;20093;-74
2023/07/08 06:50:45;;;;;;;7.70;4.32;;;;;;;26.24;58.04;101561.75;4996865;28;20603;-72
2023/07/08 06:53:10;;;;;;;7.90;4.25;;;;;;;26.23;58.10;101557.31;4978802;28;20034;-73
2023/07/08 06:55:36;;;;;;;6.47;4.00;;;;;;;26.20;58.58;101555.78;4995902;28;20039;-74
2023/07/08 06:58:02;;;;;;;6.00;3.60;;;;;;;26.11;58.00;101551.44;4997811;28;20039;-72
2023/07/08 07:00:27;;;;;;;6.70;4.43;;;;;;;25.98;56.94;101556.63;4998265;28;20952;-72
2023/07/08 07:02:53;;;;;;;7.55;3.17;;;;;;;26.46;55.61;101554.59;5002997;28;20038;-72
2023/07/08 07:05:18;;;;;;;7.25;3.30;;;;;;;26.49;57.29;101552.34;4995636;28;20758;-72
2023/07/08 07:07:44;;;;;;;4.68;3.40;;;;;;;26.57;55.11;101554.16;4998086;28;20238;-73
2023/07/08 07:10:11;;;;;;;8.90;3.80;;;;;;;26.20;57.54;101544.00;4990132;28;20519;-73
2023/07/08 07:12:37;;;;;;;5.97;3.67;;;;;;;25.85;57.05;101554.47;4990183;28;20085;-73
2023/07/08 07:15:04;;;;;;;6.00;4.25;;;;;;;25.87;58.40;101546.97;4992938;28;20092;-73
2023/07/08 07:17:30;;;;;;;6.82;4.38;;;;;;;26.13;58.53;101537.56;4992948;28;20094;-73
2023/07/08 07:19:58;;;;;;;9.82;4.72;;;;;;;26.00;56.63;101552.66;4964193;28;20144;-73
2023/07/08 07:22:24;;;;;;;6.22;3.97;;;;;;;26.52;56.66;101548.41;4991275;28;20041;-72
2023/07/08 07:24:49;;;;;;;14.23;4.43;;;;;;;26.21;57.70;101552.03;4991504;28;20434;-73
2023/07/08 07:27:16;;;;;;;6.32;4.03;;;;;;;26.30;57.28;101552.81;4996355;28;20054;-72
2023/07/08 07:29:47;;;;;;;8.77;4.18;;;;;;;26.72;58.62;101548.72;4988264;28;20051;-73
2023/07/08 07:32:14;;;;;;;8.27;3.70;;;;;;;26.92;58.18;101546.31;4989881;28;20087;-72
2023/07/08 07:34:42;;;;;;;8.38;4.07;;;;;;;26.78;58.80;101539.75;4989937;28;20714;-72
2023/07/08 07:37:13;;;;;;;8.23;4.32;;;;;;;26.84;58.22;101547.22;4992008;28;20026;-73
2023/07/08 07:39:41;;;;;;;7.85;4.30;;;;;;;26.87;57.10;101546.84;4987848;28;20683;-73
2023/07/08 07:42:08;;;;;;;10.23;4.30;;;;;;;26.52;55.29;101554.72;4994140;28;20187;-72
2023/07/08 07:44:35;;;;;;;6.63;4.57;;;;;;;26.81;56.25;101553.09;4997579;28;20046;-73
2023/07/08 07:47:02;;;;;;;9.45;4.35;;;;;;;27.00;57.75;101558.00;4986523;28;20034;-74
2023/07/08 07:49:28;;;;;;;8.85;4.75;;;;;;;27.22;61.07;101549.94;4989236;28;20283;-73
2023/07/08 07:51:54;;;;;;;6.03;4.38;;;;;;;27.37;58.56;101548.03;4961883;28;20037;-71
2023/07/08 07:54:20;;;;;;;6.20;4.60;;;;;;;26.90;55.24;101545.63;4988714;28;20039;-73
2023/07/08 07:56:45;;;;;;;9.38;4.60;;;;;;;26.80;55.78;101540.41;5007301;28;20403;-73
2023/07/08 07:59:11;;;;;;;7.70;4.28;;;;;;;27.22;54.40;101560.88;4988067;28;20034;-73
2023/07/08 08:01:37;;;;;;;5.60;4.32;;;;;;;27.45;54.94;101549.81;5002947;28;20988;-72
2023/07/08 08:04:03;;;;;;;8.88;4.72;;;;;;;27.71;55.95;101541.94;4983242;28;21097;-72
2023/07/08 08:06:29;;;;;;;6.75;4.75;;;;;;;27.57;55.99;101534.59;4990594;28;20034;-74
2023/07/08 08:08:56;;;;;;;7.45;4.40;;;;;;;28.14;56.87;101529.13;4986706;28;20112;-73
2023/07/08 08:11:22;;;;;;;11.65;5.25;;;;;;;27.73;56.51;101537.13;4987512;28;20039;-72
2023/07/08 08:13:47;;;;;;;8.50;4.85;;;;;;;27.70;54.81;101525.66;4987227;28;20034;-71
2023/07/08 08:16:13;;;;;;;7.50;4.65;;;;;;;27.96;53.14;101527.88;4990222;28;20050;-72
2023/07/08 08:18:39;;;;;;;11.25;5.15;;;;;;;27.88;55.16;101531.59;4992991;28;20038;-72
2023/07/08 08:21:04;;;;;;;8.90;5.20;;;;;;;28.32;55.29;101531.41;4986932;28;20043;-72
2023/07/08 08:23:30;;;;;;;7.55;5.20;;;;;;;28.46;52.49;101535.13;4999511;28;20038;-72
2023/07/08 08:25:55;;;;;;;9.05;4.93;;;;;;;28.23;51.30;101538.06;4999486;28;20042;-74
2023/07/08 08:28:21;;;;;;;7.75;5.00;;;;;;;28.29;51.88;101545.50;4994427;28;20908;-73
2023/07/08 08:30:48;;;;;;;8.77;4.80;;;;;;;28.52;53.01;101539.84;4983494;28;20444;-72
2023/07/08 08:33:14;;;;;;;7.15;5.20;;;;;;;28.41;52.02;101542.25;4993360;28;20039;-73
2023/07/08 08:35:41;;;;;;;6.88;4.75;;;;;;;28.35;53.24;101543.91;4994380;28;20041;-71
2023/07/08 08:38:07;;;;;;;8.13;5.32;;;;;;;28.43;52.58;101546.53;4993542;28;21328;-71
2023/07/08 08:40:33;;;;;;;10.82;4.53;;;;;;;28.41;53.32;101547.75;5011611;28;20045;-73
2023/07/08 08:43:01;;;;;;;7.28;5.38;;;;;;;28.43;51.36;101548.41;5003332;28;20043;-72
2023/07/08 08:45:29;;;;;;;14.02;5.20;;;;;;;28.77;53.07;101551.25;4996618;28;20049;-72
2023/07/08 08:48:00;;;;;;;9.38;5.10;;;;;;;28.84;52.59;101562.25;4994937;28;20109;-72
2023/07/08 08:50:44;;;;;;;;;;;;;;;28.20;51.29;101562.28;4995031;28;20038;-74
2023/07/08 08:53:13;;;;;;;8.52;5.15;;;;;;;28.65;52.35;101556.41;4989500;28;19921;-72
2023/07/08 08:55:38;;;;;;;9.65;5.00;;;;;;;28.92;51.90;101556.63;4992288;28;20030;-72
2023/07/08 08:58:40;;;;;;;9.02;5.53;;;;;;;28.87;52.88;101565.47;4990540;28;20089;-71
2023/07/08 09:01:14;;;;;;;10.18;6.15;;;;;;;28.95;49.71;101558.97;4955366;28;20086;-72
2023/07/08 09:03:42;;;;;;;7.95;5.00;;;;;;;29.19;52.84;101563.16;4928143;28;20066;-72
2023/07/08 09:06:11;;;;;;;9.65;5.35;;;;;;;29.44;49.38;101562.66;4955307;28;20051;-71
2023/07/08 09:08:38;;;;;;;7.45;5.07;;;;;;;29.51;52.25;101561.63;4957550;28;20044;-73
2023/07/08 09:11:40;;;;;;;10.15;4.88;;;;;;;29.66;49.73;101556.00;4956917;28;20050;-72
2023/07/08 09:14:26;;;;;;;11.52;5.72;;;;;;;29.13;53.98;101558.47;4953865;28;20118;-72
2023/07/08 09:17:04;;;;;;;9.68;5.55;;;;;;;29.59;53.02;101558.75;4939585;28;20036;-72
2023/07/08 09:19:39;;;;;;;9.90;5.97;;;;;;;29.15;51.87;101546.22;4930065;28;20217;-72
2023/07/08 09:22:21;;;;;;;9.27;6.00;;;;;;;29.23;50.29;101544.38;4947203;28;20320;-72
2023/07/08 09:25:15;;;;;;;10.13;6.63;;;;;;;29.66;50.95;101554.09;4930704;28;20088;-72
2023/07/08 09:27:41;;;;;;;15.57;5.68;;;;;;;29.37;48.93;101547.00;4948379;28;20039;-72
2023/07/08 09:30:14;;;;;;;13.18;6.13;;;;;;;29.16;49.49;101547.91;4930622;28;20048;-74
2023/07/08 09:32:40;;;;;;;11.18;5.80;;;;;;;29.70;51.17;101543.56;4944420;28;20040;-73
2023/07/08 09:35:08;;;;;;;11.63;5.50;;;;;;;29.60;51.84;101552.19;4937790;28;20044;-72
2023/07/08 09:37:36;;;;;;;13.25;6.03;;;;;;;29.31;51.38;101549.69;4977581;28;20082;-72
2023/07/08 09:40:30;;;;;;;9.50;6.07;;;;;;;29.65;52.45;101535.06;4989515;28;20046;-72
2023/07/08 09:43:02;;;;;;;9.57;6.13;;;;;;;29.87;52.97;101531.13;4992808;28;20061;-72
2023/07/08 09:45:28;;;;;;;12.35;6.30;;;;;;;29.50;50.06;101540.69;4985590;28;20046;-73
2023/07/08 09:47:57;;;;;;;12.02;6.38;;;;;;;29.84;47.77;101538.94;4985295;28;20065;-73
2023/07/08 09:50:26;;;;;;;12.52;6.50;;;;;;;29.74;49.43;101544.00;4988618;28;20034;-72
2023/07/08 09:52:54;;;;;;;9.45;6.85;;;;;;;30.07;50.37;101535.81;4986689;28;20317;-73
2023/07/08 09:55:20;;;;;;;10.98;6.47;;;;;;;29.99;49.75;101533.28;4977717;28;20066;-72
2023/07/08 09:57:49;;;;;;;8.48;6.30;;;;;;;29.97;52.17;101538.13;4982112;28;20543;-72
2023/07/08 10:00:18;;;;;;;8.90;5.70;;;;;;;30.27;50.20;101535.88;4982500;28;20035;-72
2023/07/08 10:03:01;;;;;;;10.25;6.85;;;;;;;30.36;50.76;101537.34;4993181;28;20097;-73
2023/07/08 10:05:38;;;;;;;10.73;6.35;;;;;;;30.61;49.91;101534.81;5003975;28;20046;-72
2023/07/08 10:08:19;;;;;;;15.18;6.75;;;;;;;30.40;48.66;101533.97;4989005;28;20500;-73
2023/07/08 10:10:47;;;;;;;9.70;6.17;;;;;;;30.54;49.90;101534.84;4995508;28;20674;-73
2023/07/08 10:13:28;;;;;;;12.38;6.43;;;;;;;30.35;52.22;101535.66;4993103;28;20049;-73
2023/07/08 10:16:06;;;;;;;12.57;6.93;;;;;;;30.32;51.97;101534.16;4984679;28;20035;-73
2023/07/08 10:18:32;;;;;;;9.50;6.20;;;;;;;30.20;49.55;101540.53;5006204;28;20074;-72
2023/07/08 10:21:27;;;;;;;12.82;7.25;;;;;;;29.96;48.75;101553.78;4991470;28;20031;-73
2023/07/08 10:24:17;;;;;;;10.93;7.10;;;;;;;30.66;50.46;101543.28;4974084;28;20066;-73
2023/07/08 10:26:49;;;;;;;9.70;6.50;;;;;;;30.59;50.24;101553.47;4994743;28;20039;-72
2023/07/08 10:29:43;;;;;;;9.05;6.78;;;;;;;30.49;50.00;101544.78;4990314;28;20082;-72
2023/07/08 10:32:33;;;;;;;10.52;6.35;;;;;;;30.52;50.86;101542.44;4979673;28;20142;-72
2023/07/08 10:35:05;;;;;;;9.45;7.22;;;;;;;30.36;49.10;101546.47;4993254;28;20475;-73
2023/07/08 10:37:33;;;;;;;;;;;;;;;30.47;50.92;101542.22;4991370;28;20030;-73
2023/07/08 10:40:16;;;;;;;10.30;6.35;;;;;;;30.66;50.61;101544.13;4985006;28;20032;-71
2023/07/08 10:43:13;;;;;;;10.98;7.13;;;;;;;30.46;51.13;101542.44;4987730;28;20077;-72
2023/07/08 10:46:07;;;;;;;12.23;7.15;;;;;;;30.36;49.17;101542.88;4986970;28;20042;-73
2023/07/08 10:48:47;;;;;;;9.15;6.50;;;;;;;30.62;49.89;101540.09;4984966;28;20295;-72
2023/07/08 10:51:29;;;;;;;8.75;6.68;;;;;;;30.94;48.54;101552.19;4988982;28;20043;-71
2023/07/08 10:54:05;;;;;;;12.07;7.07;;;;;;;30.77;47.37;101541.81;4986254;28;20134;-73
2023/07/08 10:56:41;;;;;;;11.27;6.60;;;;;;;31.03;51.25;101549.22;4990303;28;20042;-73
2023/07/08 10:59:37;;;;;;;9.68;6.65;;;;;;;31.13;49.20;101542.19;4982815;28;20046;-72
2023/07/08 11:02:25;;;;;;;9.07;6.72;;;;;;;30.94;48.95;101538.41;4988860;28;20042;-73
2023/07/08 11:05:13;;;;;;;12.27;7.68;;;;;;;31.04;48.97;101539.88;4985593;28;20068;-73
2023/07/08 11:07:48;;;;;;;12.35;6.68;;;;;;;31.18;50.16;101523.09;4987302;28;20054;-71
2023/07/08 11:10:19;;;;;;;17.67;8.43;;;;;;;31.19;47.71;101523.94;5002906;28;20141;-72
2023/07/08 11:12:48;;;;;;;11.85;7.13;;;;;;;31.20;47.29;101518.22;4997525;28;20572;-72
2023/07/08 11:15:25;;;;;;;9.80;6.82;;;;;;;31.30;48.73;101515.03;4995818;28;20034;-71
2023/07/08 11:18:14;;;;;;;16.05;7.28;;;;;;;31.05;46.25;101522.28;4990724;28;20038;-72
2023/07/08 11:20:45;;;;;;;10.05;6.70;;;;;;;31.35;49.07;101517.97;4990222;28;20045;-72
2023/07/08 11:23:26;;;;;;;9.38;6.20;;;;;;;31.36;47.56;101525.19;4981384;28;20138;-72
2023/07/08 11:26:00;;;;;;;12.45;6.72;;;;;;;31.09;45.08;101527.16;4986201;28;21408;-73
2023/07/08 11:28:25;;;;;;;11.70;6.45;;;;;;;31.26;46.44;101529.44;4987862;28;20157;-72
2023/07/08 11:30:52;;;;;;;13.57;6.88;;;;;;;31.26;45.52;101522.03;4989333;28;20034;-72
2023/07/08 11:33:24;;;;;;;10.95;7.05;;;;;;;31.35;46.71;101519.88;4979635;28;20169;-71